sensor_id;sensor_type;location;lat;lon;timestamp;P1;durP1;ratioP1;P2;durP2;ratioP2
2476;SDS011;1249;51.270;6.756;2023-05-07T00:00:19;3.00;;;2.80;;
2476;SDS011;1249;51.270;6.756;2023-05-07T00:02:45;4.70;;;3.47;;
2476;SDS011;1249;51.270;6.756;2023-05-07T00:05:11;3.77;;;3.40;;
2476;SDS011;1249;51.270;6.756;2023-05-07T00:07:37;3.73;;;3.30;;
2476;SDS011;1249;51.270;6.756;2023-05-07T00:10:03;3.80;;;3.50;;
2476;SDS011;1249;51.270;6.756;2023-05-07T00:12:29;4.60;;;2.93;;
2476;SDS011;1249;51.270;6.756;2023-05-07T00:14:58;3.60;;;3.30;;
2476;SDS011;1249;51.270;6.756;2023-05-07T00:17:28;4.90;;;3.50;;
2476;SDS011;1249;51.270;6.756;2023-05-07T00:19:54;4.13;;;2.97;;
2476;SDS011;1249;51.270;6.756;2023-05-07T00:22:20;4.23;;;3.37;;
2476;SDS011;1249;51.270;6.756;2023-05-07T00:24:46;3.50;;;3.10;;
2476;SDS011;1249;51.270;6.756;2023-05-07T00:27:12;3.03;;;2.83;;
2476;SDS011;1249;51.270;6.756;2023-05-07T00:29:37;3.37;;;3.07;;
2476;SDS011;1249;51.270;6.756;2023-05-07T00:32:03;3.03;;;2.77;;
2476;SDS011;1249;51.270;6.756;2023-05-07T00:34:28;3.27;;;3.07;;
2476;SDS011;1249;51.270;6.756;2023-05-07T00:36:54;3.67;;;3.37;;
2476;SDS011;1249;51.270;6.756;2023-05-07T00:39:20;2.73;;;2.53;;
2476;SDS011;1249;51.270;6.756;2023-05-07T00:41:45;4.10;;;3.03;;
2476;SDS011;1249;51.270;6.756;2023-05-07T00:44:11;4.90;;;3.37;;
2476;SDS011;1249;51.270;6.756;2023-05-07T00:46:36;3.17;;;2.73;;
2476;SDS011;1249;51.270;6.756;2023-05-07T00:49:02;3.40;;;3.10;;
2476;SDS011;1249;51.270;6.756;2023-05-07T00:51:29;3.23;;;3.00;;
2476;SDS011;1249;51.270;6.756;2023-05-07T00:53:55;3.07;;;2.87;;
2476;SDS011;1249;51.270;6.756;2023-05-07T00:56:21;3.27;;;2.97;;
2476;SDS011;1249;51.270;6.756;2023-05-07T00:58:48;4.00;;;3.20;;
2476;SDS011;1249;51.270;6.756;2023-05-07T01:01:14;4.00;;;2.77;;
2476;SDS011;1249;51.270;6.756;2023-05-07T01:03:43;4.20;;;2.80;;
2476;SDS011;1249;51.270;6.756;2023-05-07T01:06:09;3.10;;;2.90;;
2476;SDS011;1249;51.270;6.756;2023-05-07T01:08:37;3.87;;;2.87;;
2476;SDS011;1249;51.270;6.756;2023-05-07T01:11:07;4.00;;;2.83;;
2476;SDS011;1249;51.270;6.756;2023-05-07T01:13:34;3.67;;;3.03;;
2476;SDS011;1249;51.270;6.756;2023-05-07T01:16:01;5.70;;;2.80;;
2476;SDS011;1249;51.270;6.756;2023-05-07T01:18:27;3.40;;;3.10;;
2476;SDS011;1249;51.270;6.756;2023-05-07T01:20:54;3.40;;;2.30;;
2476;SDS011;1249;51.270;6.756;2023-05-07T01:23:23;3.63;;;2.63;;
2476;SDS011;1249;51.270;6.756;2023-05-07T01:25:52;4.87;;;3.30;;
2476;SDS011;1249;51.270;6.756;2023-05-07T01:28:19;3.47;;;2.90;;
2476;SDS011;1249;51.270;6.756;2023-05-07T01:30:46;3.30;;;3.00;;
2476;SDS011;1249;51.270;6.756;2023-05-07T01:33:15;3.50;;;3.10;;
2476;SDS011;1249;51.270;6.756;2023-05-07T01:35:45;3.57;;;3.27;;
2476;SDS011;1249;51.270;6.756;2023-05-07T01:38:13;3.50;;;3.07;;
2476;SDS011;1249;51.270;6.756;2023-05-07T01:40:40;3.30;;;3.00;;
2476;SDS011;1249;51.270;6.756;2023-05-07T01:43:06;2.40;;;2.20;;
2476;SDS011;1249;51.270;6.756;2023-05-07T01:45:32;4.23;;;3.27;;
2476;SDS011;1249;51.270;6.756;2023-05-07T01:47:58;3.40;;;2.73;;
2476;SDS011;1249;51.270;6.756;2023-05-07T01:50:25;5.53;;;3.13;;
2476;SDS011;1249;51.270;6.756;2023-05-07T01:52:50;3.87;;;3.20;;
2476;SDS011;1249;51.270;6.756;2023-05-07T01:55:17;5.90;;;2.60;;
2476;SDS011;1249;51.270;6.756;2023-05-07T01:57:43;3.73;;;3.23;;
2476;SDS011;1249;51.270;6.756;2023-05-07T02:00:08;3.00;;;2.70;;
2476;SDS011;1249;51.270;6.756;2023-05-07T02:02:34;3.20;;;2.87;;
2476;SDS011;1249;51.270;6.756;2023-05-07T02:05:00;4.27;;;3.73;;
2476;SDS011;1249;51.270;6.756;2023-05-07T02:07:26;2.80;;;2.60;;
2476;SDS011;1249;51.270;6.756;2023-05-07T02:09:52;3.13;;;2.77;;
2476;SDS011;1249;51.270;6.756;2023-05-07T02:12:20;2.93;;;2.73;;
2476;SDS011;1249;51.270;6.756;2023-05-07T02:14:46;3.10;;;2.80;;
2476;SDS011;1249;51.270;6.756;2023-05-07T02:17:11;3.70;;;3.10;;
2476;SDS011;1249;51.270;6.756;2023-05-07T02:19:37;3.77;;;3.17;;
2476;SDS011;1249;51.270;6.756;2023-05-07T02:22:02;3.40;;;3.10;;
2476;SDS011;1249;51.270;6.756;2023-05-07T02:24:28;3.17;;;2.97;;
2476;SDS011;1249;51.270;6.756;2023-05-07T02:26:54;3.87;;;3.47;;
2476;SDS011;1249;51.270;6.756;2023-05-07T02:29:19;3.00;;;2.73;;
2476;SDS011;1249;51.270;6.756;2023-05-07T02:31:45;3.10;;;2.70;;
2476;SDS011;1249;51.270;6.756;2023-05-07T02:34:10;3.10;;;2.90;;
2476;SDS011;1249;51.270;6.756;2023-05-07T02:36:36;3.10;;;2.83;;
2476;SDS011;1249;51.270;6.756;2023-05-07T02:39:01;3.90;;;3.20;;
2476;SDS011;1249;51.270;6.756;2023-05-07T02:41:28;3.90;;;2.70;;
2476;SDS011;1249;51.270;6.756;2023-05-07T02:43:53;3.27;;;2.40;;
2476;SDS011;1249;51.270;6.756;2023-05-07T02:46:19;3.17;;;2.97;;
2476;SDS011;1249;51.270;6.756;2023-05-07T02:48:44;3.00;;;2.80;;
2476;SDS011;1249;51.270;6.756;2023-05-07T02:51:10;3.00;;;2.80;;
2476;SDS011;1249;51.270;6.756;2023-05-07T02:53:35;4.07;;;2.97;;
2476;SDS011;1249;51.270;6.756;2023-05-07T02:56:01;2.83;;;2.63;;
2476;SDS011;1249;51.270;6.756;2023-05-07T02:58:27;2.90;;;2.63;;
2476;SDS011;1249;51.270;6.756;2023-05-07T03:00:53;3.13;;;2.80;;
2476;SDS011;1249;51.270;6.756;2023-05-07T03:03:22;3.27;;;3.00;;
2476;SDS011;1249;51.270;6.756;2023-05-07T03:05:48;4.50;;;2.70;;
2476;SDS011;1249;51.270;6.756;2023-05-07T03:08:13;3.20;;;2.90;;
2476;SDS011;1249;51.270;6.756;2023-05-07T03:10:39;3.23;;;2.80;;
2476;SDS011;1249;51.270;6.756;2023-05-07T03:13:05;2.70;;;2.50;;
2476;SDS011;1249;51.270;6.756;2023-05-07T03:15:30;2.60;;;2.40;;
2476;SDS011;1249;51.270;6.756;2023-05-07T03:17:56;3.17;;;2.43;;
2476;SDS011;1249;51.270;6.756;2023-05-07T03:20:21;3.47;;;2.67;;
2476;SDS011;1249;51.270;6.756;2023-05-07T03:22:47;4.13;;;3.00;;
2476;SDS011;1249;51.270;6.756;2023-05-07T03:25:13;2.37;;;2.17;;
2476;SDS011;1249;51.270;6.756;2023-05-07T03:27:39;3.10;;;2.70;;
2476;SDS011;1249;51.270;6.756;2023-05-07T03:30:06;3.50;;;3.30;;
2476;SDS011;1249;51.270;6.756;2023-05-07T03:32:33;3.60;;;2.70;;
2476;SDS011;1249;51.270;6.756;2023-05-07T03:35:00;2.90;;;2.70;;
2476;SDS011;1249;51.270;6.756;2023-05-07T03:37:26;3.83;;;2.57;;
2476;SDS011;1249;51.270;6.756;2023-05-07T03:39:51;3.47;;;3.17;;
2476;SDS011;1249;51.270;6.756;2023-05-07T03:42:17;2.63;;;2.33;;
2476;SDS011;1249;51.270;6.756;2023-05-07T03:44:44;2.73;;;2.20;;
2476;SDS011;1249;51.270;6.756;2023-05-07T03:47:09;2.90;;;2.60;;
2476;SDS011;1249;51.270;6.756;2023-05-07T03:49:35;2.97;;;2.77;;
2476;SDS011;1249;51.270;6.756;2023-05-07T03:52:01;2.53;;;2.33;;
2476;SDS011;1249;51.270;6.756;2023-05-07T03:54:26;2.23;;;2.00;;
2476;SDS011;1249;51.270;6.756;2023-05-07T03:56:52;2.23;;;2.03;;
2476;SDS011;1249;51.270;6.756;2023-05-07T03:59:17;2.67;;;2.40;;
2476;SDS011;1249;51.270;6.756;2023-05-07T04:01:43;3.03;;;2.50;;
2476;SDS011;1249;51.270;6.756;2023-05-07T04:04:08;2.60;;;2.40;;
2476;SDS011;1249;51.270;6.756;2023-05-07T04:06:34;2.70;;;2.50;;
2476;SDS011;1249;51.270;6.756;2023-05-07T04:08:59;3.57;;;2.63;;
2476;SDS011;1249;51.270;6.756;2023-05-07T04:11:25;2.60;;;2.40;;
2476;SDS011;1249;51.270;6.756;2023-05-07T04:13:51;3.70;;;2.70;;
2476;SDS011;1249;51.270;6.756;2023-05-07T04:16:16;3.47;;;2.47;;
2476;SDS011;1249;51.270;6.756;2023-05-07T04:18:42;3.57;;;2.70;;
2476;SDS011;1249;51.270;6.756;2023-05-07T04:21:17;2.50;;;2.03;;
2476;SDS011;1249;51.270;6.756;2023-05-07T04:23:44;2.83;;;2.20;;
2476;SDS011;1249;51.270;6.756;2023-05-07T04:26:10;2.73;;;2.53;;
2476;SDS011;1249;51.270;6.756;2023-05-07T04:28:36;5.57;;;2.20;;
2476;SDS011;1249;51.270;6.756;2023-05-07T04:31:01;2.73;;;2.50;;
2476;SDS011;1249;51.270;6.756;2023-05-07T04:33:27;3.30;;;2.27;;
2476;SDS011;1249;51.270;6.756;2023-05-07T04:35:52;3.67;;;2.20;;
2476;SDS011;1249;51.270;6.756;2023-05-07T04:38:18;3.10;;;2.30;;
2476;SDS011;1249;51.270;6.756;2023-05-07T04:40:44;3.67;;;2.40;;
2476;SDS011;1249;51.270;6.756;2023-05-07T04:43:10;2.30;;;2.10;;
2476;SDS011;1249;51.270;6.756;2023-05-07T04:45:36;2.27;;;2.17;;
2476;SDS011;1249;51.270;6.756;2023-05-07T04:48:01;5.60;;;2.47;;
2476;SDS011;1249;51.270;6.756;2023-05-07T04:50:27;3.00;;;2.70;;
2476;SDS011;1249;51.270;6.756;2023-05-07T04:52:52;9.37;;;2.57;;
2476;SDS011;1249;51.270;6.756;2023-05-07T04:55:18;4.47;;;2.80;;
2476;SDS011;1249;51.270;6.756;2023-05-07T04:57:43;2.50;;;2.30;;
2476;SDS011;1249;51.270;6.756;2023-05-07T05:00:10;2.90;;;2.00;;
2476;SDS011;1249;51.270;6.756;2023-05-07T05:02:39;3.00;;;2.30;;
2476;SDS011;1249;51.270;6.756;2023-05-07T05:05:05;2.63;;;2.43;;
2476;SDS011;1249;51.270;6.756;2023-05-07T05:07:31;2.80;;;2.60;;
2476;SDS011;1249;51.270;6.756;2023-05-07T05:09:57;3.10;;;2.10;;
2476;SDS011;1249;51.270;6.756;2023-05-07T05:12:22;3.50;;;2.77;;
2476;SDS011;1249;51.270;6.756;2023-05-07T05:14:48;2.73;;;2.00;;
2476;SDS011;1249;51.270;6.756;2023-05-07T05:17:13;2.93;;;2.43;;
2476;SDS011;1249;51.270;6.756;2023-05-07T05:19:39;3.17;;;2.77;;
2476;SDS011;1249;51.270;6.756;2023-05-07T05:22:05;2.40;;;2.20;;
2476;SDS011;1249;51.270;6.756;2023-05-07T05:24:31;2.90;;;2.70;;
2476;SDS011;1249;51.270;6.756;2023-05-07T05:26:56;3.77;;;2.97;;
2476;SDS011;1249;51.270;6.756;2023-05-07T05:29:22;2.80;;;2.60;;
2476;SDS011;1249;51.270;6.756;2023-05-07T05:31:47;2.60;;;2.07;;
2476;SDS011;1249;51.270;6.756;2023-05-07T05:34:13;3.13;;;2.50;;
2476;SDS011;1249;51.270;6.756;2023-05-07T05:36:38;2.57;;;2.37;;
2476;SDS011;1249;51.270;6.756;2023-05-07T05:39:04;3.00;;;2.70;;
2476;SDS011;1249;51.270;6.756;2023-05-07T05:41:30;2.97;;;2.77;;
2476;SDS011;1249;51.270;6.756;2023-05-07T05:43:56;2.80;;;2.60;;
2476;SDS011;1249;51.270;6.756;2023-05-07T05:46:22;2.33;;;2.13;;
2476;SDS011;1249;51.270;6.756;2023-05-07T05:48:47;3.40;;;2.40;;
2476;SDS011;1249;51.270;6.756;2023-05-07T05:51:13;2.50;;;2.30;;
2476;SDS011;1249;51.270;6.756;2023-05-07T05:53:38;2.77;;;2.53;;
2476;SDS011;1249;51.270;6.756;2023-05-07T05:56:04;3.53;;;2.10;;
2476;SDS011;1249;51.270;6.756;2023-05-07T05:58:30;3.00;;;1.70;;
2476;SDS011;1249;51.270;6.756;2023-05-07T06:00:55;2.20;;;2.00;;
2476;SDS011;1249;51.270;6.756;2023-05-07T06:03:21;2.40;;;2.30;;
2476;SDS011;1249;51.270;6.756;2023-05-07T06:05:47;3.17;;;2.97;;
2476;SDS011;1249;51.270;6.756;2023-05-07T06:08:12;3.07;;;2.50;;
2476;SDS011;1249;51.270;6.756;2023-05-07T06:10:38;2.33;;;2.00;;
2476;SDS011;1249;51.270;6.756;2023-05-07T06:13:04;2.20;;;2.00;;
2476;SDS011;1249;51.270;6.756;2023-05-07T06:15:30;2.30;;;2.07;;
2476;SDS011;1249;51.270;6.756;2023-05-07T06:17:55;2.70;;;1.90;;
2476;SDS011;1249;51.270;6.756;2023-05-07T06:20:22;2.03;;;1.90;;
2476;SDS011;1249;51.270;6.756;2023-05-07T06:22:48;4.70;;;2.23;;
2476;SDS011;1249;51.270;6.756;2023-05-07T06:25:13;1.93;;;1.83;;
2476;SDS011;1249;51.270;6.756;2023-05-07T06:27:39;1.73;;;1.63;;
2476;SDS011;1249;51.270;6.756;2023-05-07T06:30:05;2.33;;;2.13;;
2476;SDS011;1249;51.270;6.756;2023-05-07T06:32:32;5.10;;;1.93;;
2476;SDS011;1249;51.270;6.756;2023-05-07T06:34:57;2.17;;;1.90;;
2476;SDS011;1249;51.270;6.756;2023-05-07T06:37:23;2.63;;;2.10;;
2476;SDS011;1249;51.270;6.756;2023-05-07T06:39:48;1.80;;;1.70;;
2476;SDS011;1249;51.270;6.756;2023-05-07T06:42:14;7.23;;;2.03;;
2476;SDS011;1249;51.270;6.756;2023-05-07T06:44:40;3.50;;;1.70;;
2476;SDS011;1249;51.270;6.756;2023-05-07T06:47:05;2.00;;;1.90;;
2476;SDS011;1249;51.270;6.756;2023-05-07T06:49:31;3.57;;;1.97;;
2476;SDS011;1249;51.270;6.756;2023-05-07T06:51:57;2.10;;;1.73;;
2476;SDS011;1249;51.270;6.756;2023-05-07T06:54:23;3.40;;;2.10;;
2476;SDS011;1249;51.270;6.756;2023-05-07T06:56:48;4.27;;;2.13;;
2476;SDS011;1249;51.270;6.756;2023-05-07T06:59:14;2.10;;;2.00;;
2476;SDS011;1249;51.270;6.756;2023-05-07T07:01:40;2.73;;;1.90;;
2476;SDS011;1249;51.270;6.756;2023-05-07T07:04:05;3.37;;;2.03;;
2476;SDS011;1249;51.270;6.756;2023-05-07T07:06:31;2.37;;;2.17;;
2476;SDS011;1249;51.270;6.756;2023-05-07T07:08:57;2.07;;;1.73;;
2476;SDS011;1249;51.270;6.756;2023-05-07T07:11:23;4.80;;;2.37;;
2476;SDS011;1249;51.270;6.756;2023-05-07T07:13:49;3.07;;;2.03;;
2476;SDS011;1249;51.270;6.756;2023-05-07T07:16:15;2.50;;;1.93;;
2476;SDS011;1249;51.270;6.756;2023-05-07T07:18:41;2.20;;;2.00;;
2476;SDS011;1249;51.270;6.756;2023-05-07T07:21:07;2.77;;;1.70;;
2476;SDS011;1249;51.270;6.756;2023-05-07T07:23:32;2.77;;;2.50;;
2476;SDS011;1249;51.270;6.756;2023-05-07T07:25:58;1.90;;;1.80;;
2476;SDS011;1249;51.270;6.756;2023-05-07T07:28:24;2.23;;;2.00;;
2476;SDS011;1249;51.270;6.756;2023-05-07T07:30:49;2.43;;;1.93;;
2476;SDS011;1249;51.270;6.756;2023-05-07T07:33:15;2.30;;;2.03;;
2476;SDS011;1249;51.270;6.756;2023-05-07T07:35:41;1.90;;;1.70;;
2476;SDS011;1249;51.270;6.756;2023-05-07T07:38:07;2.23;;;2.03;;
2476;SDS011;1249;51.270;6.756;2023-05-07T07:40:34;2.10;;;1.97;;
2476;SDS011;1249;51.270;6.756;2023-05-07T07:43:00;3.20;;;2.23;;
2476;SDS011;1249;51.270;6.756;2023-05-07T07:45:26;2.30;;;2.00;;
2476;SDS011;1249;51.270;6.756;2023-05-07T07:47:52;2.57;;;2.27;;
2476;SDS011;1249;51.270;6.756;2023-05-07T07:50:17;1.90;;;1.80;;
2476;SDS011;1249;51.270;6.756;2023-05-07T07:52:43;2.90;;;1.70;;
2476;SDS011;1249;51.270;6.756;2023-05-07T07:55:09;2.13;;;1.93;;
2476;SDS011;1249;51.270;6.756;2023-05-07T07:57:34;2.20;;;1.97;;
2476;SDS011;1249;51.270;6.756;2023-05-07T08:00:00;1.80;;;1.70;;
2476;SDS011;1249;51.270;6.756;2023-05-07T08:02:26;1.83;;;1.50;;
2476;SDS011;1249;51.270;6.756;2023-05-07T08:04:51;1.80;;;1.70;;
2476;SDS011;1249;51.270;6.756;2023-05-07T08:07:17;2.37;;;2.17;;
2476;SDS011;1249;51.270;6.756;2023-05-07T08:09:45;2.00;;;1.80;;
2476;SDS011;1249;51.270;6.756;2023-05-07T08:12:11;1.77;;;1.67;;
2476;SDS011;1249;51.270;6.756;2023-05-07T08:14:36;3.00;;;1.47;;
2476;SDS011;1249;51.270;6.756;2023-05-07T08:17:02;2.20;;;2.00;;
2476;SDS011;1249;51.270;6.756;2023-05-07T08:19:28;2.00;;;1.80;;
2476;SDS011;1249;51.270;6.756;2023-05-07T08:21:53;2.03;;;1.83;;
2476;SDS011;1249;51.270;6.756;2023-05-07T08:24:20;2.30;;;1.93;;
2476;SDS011;1249;51.270;6.756;2023-05-07T08:26:45;2.23;;;2.03;;
2476;SDS011;1249;51.270;6.756;2023-05-07T08:29:11;2.23;;;1.90;;
2476;SDS011;1249;51.270;6.756;2023-05-07T08:31:36;1.90;;;1.80;;
2476;SDS011;1249;51.270;6.756;2023-05-07T08:34:04;1.90;;;1.70;;
2476;SDS011;1249;51.270;6.756;2023-05-07T08:36:30;2.00;;;1.90;;
2476;SDS011;1249;51.270;6.756;2023-05-07T08:38:55;1.90;;;1.80;;
2476;SDS011;1249;51.270;6.756;2023-05-07T08:41:21;2.37;;;2.17;;
2476;SDS011;1249;51.270;6.756;2023-05-07T08:43:48;2.50;;;2.23;;
2476;SDS011;1249;51.270;6.756;2023-05-07T08:46:19;1.87;;;1.60;;
2476;SDS011;1249;51.270;6.756;2023-05-07T08:48:49;2.30;;;2.10;;
2476;SDS011;1249;51.270;6.756;2023-05-07T08:51:16;1.73;;;1.63;;
2476;SDS011;1249;51.270;6.756;2023-05-07T08:53:44;2.20;;;2.00;;
2476;SDS011;1249;51.270;6.756;2023-05-07T08:56:11;2.53;;;1.80;;
2476;SDS011;1249;51.270;6.756;2023-05-07T08:58:37;2.47;;;2.27;;
2476;SDS011;1249;51.270;6.756;2023-05-07T09:01:03;2.43;;;2.10;;
2476;SDS011;1249;51.270;6.756;2023-05-07T09:03:36;1.77;;;1.67;;
2476;SDS011;1249;51.270;6.756;2023-05-07T09:06:03;2.37;;;2.10;;
2476;SDS011;1249;51.270;6.756;2023-05-07T09:08:28;2.13;;;1.93;;
2476;SDS011;1249;51.270;6.756;2023-05-07T09:10:54;2.60;;;2.40;;
2476;SDS011;1249;51.270;6.756;2023-05-07T09:13:20;3.73;;;2.13;;
2476;SDS011;1249;51.270;6.756;2023-05-07T09:15:46;2.27;;;2.07;;
2476;SDS011;1249;51.270;6.756;2023-05-07T09:18:14;2.07;;;1.87;;
2476;SDS011;1249;51.270;6.756;2023-05-07T09:20:40;2.80;;;2.30;;
2476;SDS011;1249;51.270;6.756;2023-05-07T09:23:06;3.43;;;1.87;;
2476;SDS011;1249;51.270;6.756;2023-05-07T09:25:33;2.57;;;2.17;;
2476;SDS011;1249;51.270;6.756;2023-05-07T09:28:00;2.17;;;1.60;;
2476;SDS011;1249;51.270;6.756;2023-05-07T09:30:27;2.30;;;2.10;;
2476;SDS011;1249;51.270;6.756;2023-05-07T09:32:54;2.27;;;2.00;;
2476;SDS011;1249;51.270;6.756;2023-05-07T09:35:20;2.90;;;2.00;;
2476;SDS011;1249;51.270;6.756;2023-05-07T09:37:52;2.00;;;1.90;;
2476;SDS011;1249;51.270;6.756;2023-05-07T09:40:22;2.73;;;1.90;;
2476;SDS011;1249;51.270;6.756;2023-05-07T09:42:49;2.40;;;1.97;;
2476;SDS011;1249;51.270;6.756;2023-05-07T09:45:15;1.93;;;1.80;;
2476;SDS011;1249;51.270;6.756;2023-05-07T09:47:42;2.30;;;2.10;;
2476;SDS011;1249;51.270;6.756;2023-05-07T09:50:11;1.93;;;1.37;;
2476;SDS011;1249;51.270;6.756;2023-05-07T09:52:40;2.40;;;1.90;;
2476;SDS011;1249;51.270;6.756;2023-05-07T09:55:07;1.90;;;1.80;;
2476;SDS011;1249;51.270;6.756;2023-05-07T09:57:34;1.70;;;1.60;;
2476;SDS011;1249;51.270;6.756;2023-05-07T10:00:01;1.80;;;1.50;;
2476;SDS011;1249;51.270;6.756;2023-05-07T10:02:30;1.87;;;1.70;;
2476;SDS011;1249;51.270;6.756;2023-05-07T10:04:58;2.20;;;2.00;;
2476;SDS011;1249;51.270;6.756;2023-05-07T10:07:25;1.80;;;1.70;;
2476;SDS011;1249;51.270;6.756;2023-05-07T10:09:51;1.83;;;1.73;;
2476;SDS011;1249;51.270;6.756;2023-05-07T10:12:18;4.70;;;1.67;;
2476;SDS011;1249;51.270;6.756;2023-05-07T10:14:45;1.97;;;1.50;;
2476;SDS011;1249;51.270;6.756;2023-05-07T10:17:11;1.90;;;1.70;;
2476;SDS011;1249;51.270;6.756;2023-05-07T10:19:38;2.67;;;1.97;;
2476;SDS011;1249;51.270;6.756;2023-05-07T10:22:05;2.43;;;1.70;;
2476;SDS011;1249;51.270;6.756;2023-05-07T10:24:32;1.80;;;1.70;;
2476;SDS011;1249;51.270;6.756;2023-05-07T10:27:02;2.40;;;2.13;;
2476;SDS011;1249;51.270;6.756;2023-05-07T10:29:34;2.70;;;1.63;;
2476;SDS011;1249;51.270;6.756;2023-05-07T10:32:19;2.83;;;1.70;;
2476;SDS011;1249;51.270;6.756;2023-05-07T10:34:58;2.27;;;1.90;;
2476;SDS011;1249;51.270;6.756;2023-05-07T10:37:27;4.40;;;2.17;;
2476;SDS011;1249;51.270;6.756;2023-05-07T10:39:54;1.93;;;1.67;;
2476;SDS011;1249;51.270;6.756;2023-05-07T10:42:19;2.17;;;1.67;;
2476;SDS011;1249;51.270;6.756;2023-05-07T10:44:45;2.03;;;1.83;;
2476;SDS011;1249;51.270;6.756;2023-05-07T10:47:11;3.00;;;2.00;;
2476;SDS011;1249;51.270;6.756;2023-05-07T10:52:17;2.80;;;1.70;;
2476;SDS011;1249;51.270;6.756;2023-05-07T10:55:19;2.20;;;2.10;;
2476;SDS011;1249;51.270;6.756;2023-05-07T10:57:46;2.90;;;2.10;;
2476;SDS011;1249;51.270;6.756;2023-05-07T11:05:28;1.70;;;1.60;;
2476;SDS011;1249;51.270;6.756;2023-05-07T11:07:55;1.60;;;1.50;;
2476;SDS011;1249;51.270;6.756;2023-05-07T11:10:47;2.13;;;1.83;;
2476;SDS011;1249;51.270;6.756;2023-05-07T11:13:14;2.10;;;1.73;;
2476;SDS011;1249;51.270;6.756;2023-05-07T11:15:42;1.93;;;1.80;;
2476;SDS011;1249;51.270;6.756;2023-05-07T11:18:09;3.30;;;2.60;;
2476;SDS011;1249;51.270;6.756;2023-05-07T11:25:59;1.67;;;1.57;;
2476;SDS011;1249;51.270;6.756;2023-05-07T11:28:41;1.90;;;1.60;;
2476;SDS011;1249;51.270;6.756;2023-05-07T11:31:09;2.27;;;1.87;;
2476;SDS011;1249;51.270;6.756;2023-05-07T11:33:35;3.30;;;1.73;;
2476;SDS011;1249;51.270;6.756;2023-05-07T11:36:04;3.00;;;2.70;;
2476;SDS011;1249;51.270;6.756;2023-05-07T11:38:30;2.57;;;2.37;;
2476;SDS011;1249;51.270;6.756;2023-05-07T11:41:00;2.83;;;2.47;;
2476;SDS011;1249;51.270;6.756;2023-05-07T11:43:26;2.10;;;1.90;;
2476;SDS011;1249;51.270;6.756;2023-05-07T11:45:52;1.87;;;1.77;;
2476;SDS011;1249;51.270;6.756;2023-05-07T11:48:18;1.90;;;1.60;;
2476;SDS011;1249;51.270;6.756;2023-05-07T11:53:43;2.00;;;1.80;;
2476;SDS011;1249;51.270;6.756;2023-05-07T11:56:10;2.50;;;1.97;;
2476;SDS011;1249;51.270;6.756;2023-05-07T11:58:43;2.20;;;1.50;;
2476;SDS011;1249;51.270;6.756;2023-05-07T12:01:10;1.70;;;1.60;;
2476;SDS011;1249;51.270;6.756;2023-05-07T12:03:37;2.17;;;1.90;;
2476;SDS011;1249;51.270;6.756;2023-05-07T12:06:07;1.80;;;1.60;;
2476;SDS011;1249;51.270;6.756;2023-05-07T12:08:35;2.30;;;2.03;;
2476;SDS011;1249;51.270;6.756;2023-05-07T12:11:02;4.00;;;1.90;;
2476;SDS011;1249;51.270;6.756;2023-05-07T12:13:31;2.30;;;2.10;;
2476;SDS011;1249;51.270;6.756;2023-05-07T12:15:57;3.13;;;2.93;;
2476;SDS011;1249;51.270;6.756;2023-05-07T12:18:23;1.90;;;1.80;;
2476;SDS011;1249;51.270;6.756;2023-05-07T12:20:49;2.00;;;1.80;;
2476;SDS011;1249;51.270;6.756;2023-05-07T12:23:15;2.13;;;1.93;;
2476;SDS011;1249;51.270;6.756;2023-05-07T12:25:42;1.83;;;1.73;;
2476;SDS011;1249;51.270;6.756;2023-05-07T12:28:12;2.90;;;2.10;;
2476;SDS011;1249;51.270;6.756;2023-05-07T12:30:42;2.43;;;2.00;;
2476;SDS011;1249;51.270;6.756;2023-05-07T12:33:09;2.10;;;1.90;;
2476;SDS011;1249;51.270;6.756;2023-05-07T12:35:36;2.80;;;2.03;;
2476;SDS011;1249;51.270;6.756;2023-05-07T12:38:07;4.63;;;2.03;;
2476;SDS011;1249;51.270;6.756;2023-05-07T12:40:37;2.17;;;1.90;;
2476;SDS011;1249;51.270;6.756;2023-05-07T12:43:03;1.77;;;1.67;;
2476;SDS011;1249;51.270;6.756;2023-05-07T12:45:29;1.70;;;1.60;;
2476;SDS011;1249;51.270;6.756;2023-05-07T12:47:54;1.60;;;1.50;;
2476;SDS011;1249;51.270;6.756;2023-05-07T12:50:21;2.90;;;1.77;;
2476;SDS011;1249;51.270;6.756;2023-05-07T12:52:47;2.73;;;1.80;;
2476;SDS011;1249;51.270;6.756;2023-05-07T12:55:16;5.77;;;2.00;;
2476;SDS011;1249;51.270;6.756;2023-05-07T12:57:42;1.60;;;1.50;;
2476;SDS011;1249;51.270;6.756;2023-05-07T13:00:10;2.17;;;1.80;;
2476;SDS011;1249;51.270;6.756;2023-05-07T13:02:40;3.77;;;2.17;;
2476;SDS011;1249;51.270;6.756;2023-05-07T13:05:07;1.60;;;1.50;;
2476;SDS011;1249;51.270;6.756;2023-05-07T13:07:33;3.10;;;2.00;;
2476;SDS011;1249;51.270;6.756;2023-05-07T13:09:59;1.80;;;1.70;;
2476;SDS011;1249;51.270;6.756;2023-05-07T13:12:24;2.00;;;1.80;;
2476;SDS011;1249;51.270;6.756;2023-05-07T13:14:50;2.73;;;1.70;;
2476;SDS011;1249;51.270;6.756;2023-05-07T13:17:15;2.20;;;1.83;;
2476;SDS011;1249;51.270;6.756;2023-05-07T13:19:41;2.57;;;2.13;;
2476;SDS011;1249;51.270;6.756;2023-05-07T13:22:06;2.53;;;2.27;;
2476;SDS011;1249;51.270;6.756;2023-05-07T13:24:32;2.50;;;2.27;;
2476;SDS011;1249;51.270;6.756;2023-05-07T13:26:57;2.50;;;2.30;;
2476;SDS011;1249;51.270;6.756;2023-05-07T13:29:23;2.57;;;2.30;;
2476;SDS011;1249;51.270;6.756;2023-05-07T13:31:54;2.77;;;2.10;;
2476;SDS011;1249;51.270;6.756;2023-05-07T13:34:24;2.20;;;2.00;;
2476;SDS011;1249;51.270;6.756;2023-05-07T13:36:49;2.37;;;1.90;;
2476;SDS011;1249;51.270;6.756;2023-05-07T13:39:15;2.00;;;1.90;;
2476;SDS011;1249;51.270;6.756;2023-05-07T13:41:40;2.27;;;2.07;;
2476;SDS011;1249;51.270;6.756;2023-05-07T13:44:06;2.50;;;2.20;;
2476;SDS011;1249;51.270;6.756;2023-05-07T13:46:32;2.20;;;2.10;;
2476;SDS011;1249;51.270;6.756;2023-05-07T13:48:57;2.77;;;2.57;;
2476;SDS011;1249;51.270;6.756;2023-05-07T13:51:23;2.50;;;2.30;;
2476;SDS011;1249;51.270;6.756;2023-05-07T13:53:48;2.67;;;2.30;;
2476;SDS011;1249;51.270;6.756;2023-05-07T13:56:14;3.13;;;2.83;;
2476;SDS011;1249;51.270;6.756;2023-05-07T13:58:40;3.17;;;2.83;;
2476;SDS011;1249;51.270;6.756;2023-05-07T14:01:06;3.70;;;3.17;;
2476;SDS011;1249;51.270;6.756;2023-05-07T14:03:31;3.47;;;3.17;;
2476;SDS011;1249;51.270;6.756;2023-05-07T14:05:58;3.80;;;3.03;;
2476;SDS011;1249;51.270;6.756;2023-05-07T14:08:26;7.00;;;3.40;;
2476;SDS011;1249;51.270;6.756;2023-05-07T14:10:52;4.60;;;4.07;;
2476;SDS011;1249;51.270;6.756;2023-05-07T14:13:17;5.33;;;3.70;;
2476;SDS011;1249;51.270;6.756;2023-05-07T14:15:43;4.10;;;3.70;;
2476;SDS011;1249;51.270;6.756;2023-05-07T14:18:11;4.10;;;3.80;;
2476;SDS011;1249;51.270;6.756;2023-05-07T14:20:37;4.87;;;4.47;;
2476;SDS011;1249;51.270;6.756;2023-05-07T14:23:03;3.57;;;3.27;;
2476;SDS011;1249;51.270;6.756;2023-05-07T14:25:29;5.00;;;4.50;;
2476;SDS011;1249;51.270;6.756;2023-05-07T14:27:54;8.27;;;3.80;;
2476;SDS011;1249;51.270;6.756;2023-05-07T14:30:20;4.53;;;4.13;;
2476;SDS011;1249;51.270;6.756;2023-05-07T14:32:49;5.20;;;3.70;;
2476;SDS011;1249;51.270;6.756;2023-05-07T14:35:15;4.00;;;3.50;;
2476;SDS011;1249;51.270;6.756;2023-05-07T14:37:40;4.70;;;4.30;;
2476;SDS011;1249;51.270;6.756;2023-05-07T14:40:06;6.90;;;4.07;;
2476;SDS011;1249;51.270;6.756;2023-05-07T14:42:32;5.67;;;3.50;;
2476;SDS011;1249;51.270;6.756;2023-05-07T14:44:58;4.47;;;4.03;;
2476;SDS011;1249;51.270;6.756;2023-05-07T14:47:23;4.47;;;4.07;;
2476;SDS011;1249;51.270;6.756;2023-05-07T14:49:49;5.13;;;4.40;;
2476;SDS011;1249;51.270;6.756;2023-05-07T14:52:14;4.67;;;4.20;;
2476;SDS011;1249;51.270;6.756;2023-05-07T14:54:40;4.57;;;4.17;;
2476;SDS011;1249;51.270;6.756;2023-05-07T14:57:06;4.40;;;4.00;;
2476;SDS011;1249;51.270;6.756;2023-05-07T14:59:34;5.10;;;4.60;;
2476;SDS011;1249;51.270;6.756;2023-05-07T15:02:00;3.97;;;3.60;;
2476;SDS011;1249;51.270;6.756;2023-05-07T15:04:26;5.47;;;4.00;;
2476;SDS011;1249;51.270;6.756;2023-05-07T15:06:52;4.77;;;4.20;;
2476;SDS011;1249;51.270;6.756;2023-05-07T15:09:18;4.20;;;3.90;;
2476;SDS011;1249;51.270;6.756;2023-05-07T15:11:44;6.70;;;4.40;;
2476;SDS011;1249;51.270;6.756;2023-05-07T15:14:10;5.40;;;4.50;;
2476;SDS011;1249;51.270;6.756;2023-05-07T15:16:35;4.37;;;4.07;;
2476;SDS011;1249;51.270;6.756;2023-05-07T15:19:01;5.57;;;4.73;;
2476;SDS011;1249;51.270;6.756;2023-05-07T15:21:26;5.20;;;4.70;;
2476;SDS011;1249;51.270;6.756;2023-05-07T15:23:52;6.90;;;5.00;;
2476;SDS011;1249;51.270;6.756;2023-05-07T15:26:17;6.57;;;5.83;;